Time;durP1;ratioP1;P1;durP2;ratioP2;P2;SDS_P1;SDS_P2;PMS_P1;PMS_P2;Temp;Humidity;BMP_temperature;BMP_pressure;BME280_temperature;BME280_humidity;BME280_pressure;Samples;Min_cycle;Max_cycle;Signal;HPM_P1;HPM_P2
2023/03/26 00:01:48;;;;;;;92.30;37.13;;;;;;;8.98;100.00;-5966.28;5108754;28;20180;-62
2023/03/26 00:04:18;;;;;;;87.03;37.43;;;;;;;9.25;100.00;-5967.50;5108484;28;20689;-62
2023/03/26 00:06:47;;;;;;;93.40;37.20;;;;;;;9.28;100.00;-5967.63;5108758;28;20646;-61
2023/03/26 00:09:15;;;;;;;93.67;37.10;;;;;;;9.39;100.00;-6286.44;5108690;28;20622;-61
2023/03/26 00:11:44;;;;;;;86.53;36.87;;;;;;;9.43;100.00;-6286.66;5108147;28;20227;-61
2023/03/26 00:14:16;;;;;;;96.27;37.00;;;;;;;9.43;100.00;-6286.66;5108432;28;20287;-61
2023/03/26 00:16:44;;;;;;;95.97;38.50;;;;;;;9.51;100.00;-6287.06;5108231;28;20180;-62
2023/03/26 00:19:11;;;;;;;89.67;37.17;;;;;;;9.53;100.00;-5968.75;5108185;28;20191;-62
2023/03/26 00:21:40;;;;;;;96.70;39.43;;;;;;;9.55;100.00;-5968.84;5106261;28;20627;-61
2023/03/26 00:24:10;;;;;;;92.50;38.30;;;;;;;9.43;100.00;-5968.31;5094448;28;20200;-62
2023/03/26 00:26:37;;;;;;;84.23;35.83;;;;;;;9.46;100.00;-5968.47;5094491;28;20278;-62
2023/03/26 00:29:05;;;;;;;88.77;36.03;;;;;;;9.52;100.00;-6287.13;5094655;28;20535;-62
2023/03/26 00:31:33;;;;;;;81.73;34.70;;;;;;;9.45;100.00;-6286.75;5094596;28;20594;-61
2023/03/26 00:34:02;;;;;;;88.70;36.07;;;;;;;9.59;100.00;-5650.59;5094624;28;20536;-61
2023/03/26 00:36:29;;;;;;;87.70;36.07;;;;;;;9.43;100.00;-5968.34;5094298;28;20183;-62
2023/03/26 00:38:57;;;;;;;87.30;36.27;;;;;;;9.59;100.00;-5650.59;5094298;28;20183;-61
2023/03/26 00:41:29;;;;;;;89.63;37.37;;;;;;;9.52;100.00;-5968.72;5094136;28;20196;-61
2023/03/26 00:43:59;;;;;;;89.53;37.80;;;;;;;9.56;100.00;-5968.94;5094088;28;20184;-61
2023/03/26 00:46:28;;;;;;;93.63;39.70;;;;;;;9.53;100.00;-5968.78;5094093;28;20201;-62
2023/03/26 00:48:58;;;;;;;99.93;40.07;;;;;;;9.57;100.00;-6287.38;5094079;28;20176;-62
2023/03/26 00:51:27;;;;;;;100.53;40.97;;;;;;;9.53;100.00;-6605.53;5093950;28;20303;-61
2023/03/26 00:53:54;;;;;;;95.27;41.03;;;;;;;9.44;100.00;-6605.03;5093925;28;20191;-62
2023/03/26 00:56:22;;;;;;;100.50;41.47;;;;;;;9.36;100.00;-6604.56;5094133;28;20646;-61
2023/03/26 00:58:49;;;;;;;94.83;41.53;;;;;;;9.60;100.00;-6605.94;5094234;28;20612;-61
2023/03/26 01:01:20;;;;;;;96.73;41.20;;;;;;;9.74;100.00;-7243.50;5094140;28;20642;-61
2023/03/26 01:03:47;;;;;;;98.83;44.03;;;;;;;9.80;100.00;-7243.88;5094105;28;20184;-61
2023/03/26 01:06:22;;;;;;;96.23;45.50;;;;;;;9.53;100.00;-7242.16;5094008;28;20199;-61
2023/03/26 01:08:51;;;;;;;113.67;47.03;;;;;;;9.78;100.00;-6925.38;5093882;28;20258;-62
2023/03/26 01:11:21;;;;;;;107.03;47.70;;;;;;;9.85;100.00;-7562.66;5093488;28;20338;-62
2023/03/26 01:13:51;;;;;;;109.33;47.90;;;;;;;9.85;100.00;-7881.03;5093476;28;20195;-63
2023/03/26 01:16:24;;;;;;;105.90;48.17;;;;;;;9.71;100.00;-7879.97;5093735;28;20255;-63
2023/03/26 01:18:52;;;;;;;108.13;47.80;;;;;;;9.90;100.00;-7881.44;5093734;28;20257;-61
2023/03/26 01:21:27;;;;;;;110.67;50.40;;;;;;;9.91;100.00;-8199.91;5093407;28;20231;-62
2023/03/26 01:24:00;;;;;;;110.97;50.47;;;;;;;9.81;100.00;-8517.41;5093563;28;20187;-61
2023/03/26 01:26:58;;;;;;;112.27;51.77;;;;;;;9.90;100.00;-8836.50;5093571;28;20521;-61
2023/03/26 01:29:32;;;;;;;111.00;52.63;;;;;;;9.87;100.00;-9154.56;5078617;28;20225;-62
2023/03/26 01:32:08;;;;;;;111.03;53.87;;;;;;;9.92;100.00;-9473.28;5093405;28;20562;-62
2023/03/26 01:34:48;;;;;;;134.03;56.00;;;;;;;9.88;100.00;-9791.09;5092193;28;20188;-62
2023/03/26 01:37:23;;;;;;;120.40;56.03;;;;;;;9.97;100.00;-9792.13;5093412;28;20278;-61
2023/03/26 01:39:57;;;;;;;115.17;56.80;;;;;;;9.96;100.00;-9792.00;5093319;28;20195;-61
2023/03/26 01:42:34;;;;;;;123.37;56.17;;;;;;;9.97;100.00;-9792.06;5093227;28;20193;-62
2023/03/26 01:45:09;;;;;;;109.00;55.50;;;;;;;9.93;100.00;-10109.91;5092912;28;20179;-61
2023/03/26 01:47:39;;;;;;;118.23;57.57;;;;;;;9.87;100.00;-10109.16;5093251;28;20550;-61
2023/03/26 01:50:08;;;;;;;114.43;56.53;;;;;;;9.93;100.00;-10428.03;5092848;28;20222;-61
2023/03/26 01:52:35;;;;;;;107.07;54.37;;;;;;;9.90;100.00;-10427.69;5092738;28;20210;-62
2023/03/26 01:55:04;;;;;;;109.63;55.73;;;;;;;9.96;100.00;-10428.38;5092732;28;20188;-62
2023/03/26 01:57:36;;;;;;;111.07;53.37;;;;;;;9.81;100.00;-10426.63;5092936;28;20184;-62
2023/03/26 02:00:15;;;;;;;108.57;55.20;;;;;;;9.94;100.00;-10428.16;5092879;28;20184;-61
2023/03/26 02:02:50;;;;;;;105.10;53.33;;;;;;;9.94;100.00;-10428.16;5092907;28;20230;-62
2023/03/26 02:05:23;;;;;;;113.57;56.47;;;;;;;9.78;100.00;-10426.31;5092636;28;20190;-61
2023/03/26 02:07:57;;;;;;;111.07;54.33;;;;;;;9.83;100.00;-10426.84;5092944;28;20788;-62
2023/03/26 02:10:28;;;;;;;101.47;53.27;;;;;;;10.01;100.00;-10428.97;5092162;28;20231;-60
2023/03/26 02:12:55;;;;;;;107.70;56.70;;;;;;;10.05;100.00;-10429.44;5092743;28;20676;-61
2023/03/26 02:15:23;;;;;;;121.73;60.77;;;;;;;10.06;100.00;-10111.31;5092374;28;20275;-62
2023/03/26 02:17:51;;;;;;;121.07;59.40;;;;;;;10.14;100.00;-10430.50;5092341;28;20183;-62
2023/03/26 02:20:19;;;;;;;118.30;58.63;;;;;;;10.19;100.00;-10112.72;5092555;28;20629;-60
2023/03/26 02:22:47;;;;;;;112.27;58.83;;;;;;;10.20;100.00;-10431.22;5092230;28;20227;-61
2023/03/26 02:25:16;;;;;;;108.30;58.00;;;;;;;10.17;100.00;-10749.16;5092510;28;20540;-60
2023/03/26 02:27:46;;;;;;;117.77;58.37;;;;;;;10.10;100.00;-11066.50;5092143;28;20188;-60
2023/03/26 02:30:19;;;;;;;105.90;56.70;;;;;;;10.18;100.00;-11385.69;5092431;28;20211;-61
2023/03/26 02:32:46;;;;;;;111.80;57.97;;;;;;;10.20;100.00;-11704.22;5092253;28;20269;-61
2023/03/26 02:35:13;;;;;;;108.97;54.70;;;;;;;10.23;100.00;-12022.84;5092028;28;20565;-61
2023/03/26 02:37:40;;;;;;;101.80;53.17;;;;;;;10.21;100.00;-12022.53;5092316;28;20654;-62
2023/03/26 02:40:10;;;;;;;94.70;50.90;;;;;;;10.32;100.00;-12024.13;5092170;28;20184;-60
2023/03/26 02:42:37;;;;;;;93.33;51.00;;;;;;;10.36;100.00;-12342.91;5091935;28;20184;-60
2023/03/26 02:45:07;;;;;;;89.93;49.63;;;;;;;10.35;100.00;-12342.69;5091926;28;20192;-61
2023/03/26 02:47:34;;;;;;;93.50;48.47;;;;;;;10.35;100.00;-12342.69;5091836;28;20184;-61
2023/03/26 02:50:02;;;;;;;88.77;47.40;;;;;;;10.46;100.00;-12344.34;5092086;28;20195;-60
2023/03/26 02:52:29;;;;;;;91.47;46.73;;;;;;;10.32;100.00;-12660.50;5091754;28;20208;-61
2023/03/26 02:54:56;;;;;;;89.63;47.20;;;;;;;10.57;100.00;-12664.19;5092026;28;20229;-62
2023/03/26 02:57:24;;;;;;;87.53;45.53;;;;;;;10.63;100.00;-12665.13;5092025;28;20690;-61
2023/03/26 02:59:51;;;;;;;82.83;46.83;;;;;;;10.67;100.00;-12984.06;5091739;28;20341;-62
2023/03/26 03:02:21;;;;;;;89.67;47.63;;;;;;;10.71;100.00;-13621.28;5091955;28;20594;-61
2023/03/26 03:04:48;;;;;;;75.50;44.37;;;;;;;10.78;100.00;-14259.00;5091711;28;20184;-62
2023/03/26 03:07:15;;;;;;;80.43;47.13;;;;;;;10.72;100.00;-14894.25;5092083;28;20227;-61
2023/03/26 03:09:42;;;;;;;74.87;43.97;;;;;;;10.75;100.00;-15849.25;5091924;28;20184;-62
2023/03/26 03:12:09;;;;;;;79.30;45.10;;;;;;;10.79;100.00;-16168.16;5091447;28;20228;-60
2023/03/26 03:14:36;;;;;;;73.60;40.87;;;;;;;10.82;100.00;-16486.72;5091491;28;20215;-60
2023/03/26 03:17:03;;;;;;;69.50;38.83;;;;;;;10.90;100.00;-16488.44;5091843;28;20649;-61
2023/03/26 03:19:31;;;;;;;53.07;33.07;;;;;;;10.85;100.00;-16805.41;5091517;28;20184;-61
2023/03/26 03:21:58;;;;;;;45.17;29.17;;;;;;;10.88;100.00;-17124.09;5091745;28;20534;-61
2023/03/26 03:24:26;;;;;;;33.33;23.63;;;;;;;10.87;100.00;-17123.88;5091719;28;20191;-61
2023/03/26 03:26:55;;;;;;;23.80;17.20;;;;;;;11.00;100.00;-17126.91;5091439;28;20192;-61
2023/03/26 03:29:22;;;;;;;17.23;14.33;;;;;;;11.16;100.00;-17766.66;5090634;28;20670;-62
2023/03/26 03:31:49;;;;;;;15.97;11.20;;;;;;;11.28;100.00;-18087.50;5091293;28;20212;-61
2023/03/26 03:34:16;;;;;;;9.43;8.83;;;;;;;11.42;100.00;-18092.88;5091368;28;20221;-60
2023/03/26 03:36:47;;;;;;;8.57;8.17;;;;;;;11.46;100.00;-18093.84;5091345;28;20184;-61
2023/03/26 03:39:14;;;;;;;7.83;7.43;;;;;;;11.67;100.00;-18098.78;5091596;28;20631;-61
2023/03/26 03:41:41;;;;;;;6.17;5.83;;;;;;;11.76;100.00;-18100.97;5090829;28;20686;-61
2023/03/26 03:44:08;;;;;;;6.33;6.03;;;;;;;11.84;100.00;-18102.88;5091278;28;20187;-61
2023/03/26 03:46:35;;;;;;;7.00;6.07;;;;;;;11.74;100.00;-18100.34;5091298;28;20192;-61
2023/03/26 03:49:02;;;;;;;6.87;6.47;;;;;;;11.99;100.00;-18106.38;5091235;28;20192;-60
2023/03/26 03:51:30;;;;;;;6.13;5.83;;;;;;;12.01;100.00;-18106.75;5091194;28;20280;-61
2023/03/26 03:53:58;;;;;;;6.30;6.00;;;;;;;12.05;100.00;-17787.44;5091554;28;20639;-61
2023/03/26 03:56:25;;;;;;;4.87;4.53;;;;;;;11.90;100.00;-16828.47;5090264;28;20199;-61
2023/03/26 03:58:52;;;;;;;3.97;3.77;;;;;;;12.01;100.00;-14599.72;5094777;28;20199;-60
2023/03/26 04:01:21;;;;;;;3.40;3.27;;;;;;;12.26;100.00;-13328.25;5095019;28;20188;-61
2023/03/26 04:03:48;;;;;;;3.43;3.33;;;;;;;12.37;100.00;-11414.53;5095189;28;20618;-61
2023/03/26 04:06:17;;;;;;;3.03;2.93;;;;;;;12.40;100.00;-10137.31;5095201;28;20665;-61
2023/03/26 04:08:44;;;;;;;3.23;3.13;;;;;;;12.47;100.00;-9179.44;5094864;28;20187;-61
2023/03/26 04:11:15;;;;;;;2.80;2.70;;;;;;;12.47;100.00;-7261.25;5094767;28;20685;-61
2023/03/26 04:13:42;;;;;;;2.93;2.83;;;;;;;12.63;100.00;-5982.53;5094719;28;20219;-61
2023/03/26 04:16:09;;;;;;;2.93;2.83;;;;;;;12.59;100.00;-5982.38;5094728;28;20223;-61
2023/03/26 04:18:37;;;;;;;3.30;3.00;;;;;;;12.65;100.00;-5662.59;5094603;28;20184;-61
2023/03/26 04:21:06;;;;;;;3.10;3.00;;;;;;;12.75;100.00;-5022.75;5094787;28;20278;-60
2023/03/26 04:23:33;;;;;;;3.20;3.10;;;;;;;12.63;100.00;-4062.00;5094757;28;20220;-60
2023/03/26 04:26:03;;;;;;;3.03;2.93;;;;;;;12.74;100.00;-5022.72;5094459;28;20180;-62
2023/03/26 04:28:40;;;;;;;3.47;3.37;;;;;;;12.75;100.00;-5022.75;5094703;28;20548;-59
2023/03/26 04:31:12;;;;;;;3.17;2.87;;;;;;;12.80;100.00;-4382.50;5094764;28;20194;-61
2023/03/26 04:33:39;;;;;;;3.83;3.60;;;;;;;12.82;100.00;-2460.47;5094573;28;20316;-61
2023/03/26 04:36:07;;;;;;;3.97;3.50;;;;;;;12.82;100.00;-1499.00;5094598;28;20200;-60
2023/03/26 04:38:41;;;;;;;3.43;3.33;;;;;;;12.91;100.00;-1819.31;5094271;28;20184;-60
2023/03/26 04:41:10;;;;;;;3.47;3.37;;;;;;;12.94;100.00;-1498.66;5094511;28;20623;-61
2023/03/26 04:43:45;;;;;;;3.27;3.17;;;;;;;12.83;100.00;-857.81;5094350;28;20599;-60
2023/03/26 04:46:12;;;;;;;3.33;3.23;;;;;;;12.92;100.00;-2460.34;5094736;28;20215;-62
2023/03/26 04:48:39;;;;;;;3.90;3.80;;;;;;;12.97;100.00;-3101.22;5094306;28;20192;-60
2023/03/26 04:51:08;;;;;;;3.40;3.30;;;;;;;12.92;100.00;-3421.66;5094341;28;20568;-61
2023/03/26 04:53:35;;;;;;;3.37;3.27;;;;;;;12.83;100.00;-3741.97;5094198;28;20204;-60
2023/03/26 04:56:13;;;;;;;3.97;3.67;;;;;;;12.84;100.00;-3101.28;5093939;28;20199;-61
2023/03/26 04:58:41;;;;;;;3.70;3.60;;;;;;;12.93;100.00;-4062.41;5094213;28;20547;-60
2023/03/26 05:01:10;;;;;;;5.00;3.40;;;;;;;12.93;100.00;-5343.50;5094113;28;20559;-60
2023/03/26 05:03:39;;;;;;;3.77;3.67;;;;;;;12.89;100.00;-5663.53;5093781;28;20184;-60
2023/03/26 05:06:08;;;;;;;3.80;3.70;;;;;;;13.01;100.00;-5343.78;5093992;28;20215;-60
2023/03/26 05:08:35;;;;;;;4.30;4.00;;;;;;;12.90;100.00;-5023.19;5093534;28;20191;-61
2023/03/26 05:11:01;;;;;;;3.80;3.60;;;;;;;12.84;100.00;-5343.19;5093461;28;20231;-61
2023/03/26 05:13:28;;;;;;;3.60;3.50;;;;;;;12.79;100.00;-4702.69;5093486;28;20200;-61
2023/03/26 05:15:57;;;;;;;4.23;3.93;;;;;;;12.92;100.00;-5663.66;5093725;28;20200;-59
2023/03/26 05:18:23;;;;;;;6.80;4.27;;;;;;;12.84;100.00;-6623.63;5093780;28;20641;-60
2023/03/26 05:20:50;;;;;;;3.57;3.47;;;;;;;12.87;100.00;-7583.81;5093452;28;20184;-61
2023/03/26 05:23:17;;;;;;;3.73;3.63;;;;;;;12.96;100.00;-6944.34;5093379;28;20180;-60
2023/03/26 05:25:45;;;;;;;3.83;3.73;;;;;;;12.91;100.00;-7264.06;5093402;28;20206;-61
2023/03/26 05:28:12;;;;;;;4.10;3.90;;;;;;;12.98;100.00;-7904.53;5093610;28;20192;-60
2023/03/26 05:30:39;;;;;;;4.00;3.87;;;;;;;13.05;100.00;-8865.03;5093508;28;20188;-60
2023/03/26 05:33:07;;;;;;;4.40;4.13;;;;;;;13.09;100.00;-9185.28;5093449;28;20204;-62
2023/03/26 05:35:35;;;;;;;3.80;3.70;;;;;;;12.90;100.00;-9823.09;5093154;28;20190;-61
2023/03/26 05:38:02;;;;;;;4.27;4.17;;;;;;;13.26;100.00;-9506.97;5093190;28;20269;-60
2023/03/26 05:40:29;;;;;;;3.87;3.67;;;;;;;13.38;100.00;-8547.84;5092881;28;20196;-60
2023/03/26 05:42:56;;;;;;;3.77;3.57;;;;;;;13.49;100.00;-5665.84;5093280;28;20648;-61
2023/03/26 05:45:22;;;;;;;3.50;3.33;;;;;;;13.60;100.00;-3742.56;5093003;28;20192;-60
2023/03/26 05:47:53;;;;;;;3.30;3.20;;;;;;;13.81;100.00;-211.75;5093267;28;20191;-61
2023/03/26 05:50:21;;;;;;;3.50;3.30;;;;;;;14.13;100.00;3648.09;5093116;28;20613;-61
2023/03/26 05:52:48;;;;;;;2.90;2.80;;;;;;;14.51;100.00;12032.56;5092794;28;20208;-61
2023/03/26 05:55:17;;;;;;;3.60;3.30;;;;;;;14.85;100.00;23038.09;5093009;28;20188;-60
2023/03/26 05:57:44;;;;;;;2.53;2.43;;;;;;;14.79;100.00;30494.41;5093092;28;20597;-60
2023/03/26 06:00:12;;;;;;;2.60;2.50;;;;;;;14.56;100.00;34378.88;5092677;28;20567;-60
2023/03/26 06:02:41;;;;;;;2.80;2.60;;;;;;;14.46;100.00;34372.75;5092691;28;20181;-59
2023/03/26 06:05:08;;;;;;;2.53;2.43;;;;;;;14.30;100.00;33064.00;5092565;28;20194;-62
2023/03/26 06:07:37;;;;;;;2.03;2.00;;;;;;;13.94;100.00;29475.88;5092980;28;20203;-59
2023/03/26 06:10:05;;;;;;;2.07;2.07;;;;;;;14.10;100.00;28511.66;5092329;28;20180;-60
2023/03/26 06:12:32;;;;;;;4.00;2.90;;;;;;;14.10;100.00;26243.59;5092416;28;20205;-60
2023/03/26 06:14:59;;;;;;;2.63;2.43;;;;;;;13.83;100.00;29145.94;5092704;28;20184;-60
2023/03/26 06:17:25;;;;;;;2.33;2.23;;;;;;;13.95;100.00;33043.53;5092699;28;20184;-59
2023/03/26 06:19:53;;;;;;;3.83;2.63;;;;;;;14.07;100.00;36947.78;5092149;28;20215;-60
2023/03/26 06:22:20;;;;;;;2.40;2.30;;;;;;;13.88;100.00;37260.16;5092635;28;20237;-60
2023/03/26 06:24:49;;;;;;;2.53;2.43;;;;;;;13.93;100.00;39863.19;5092544;28;20657;-60
2023/03/26 06:27:15;;;;;;;2.23;2.13;;;;;;;14.06;100.00;40522.81;5092241;28;20240;-59
2023/03/26 06:29:42;;;;;;;2.40;2.30;;;;;;;13.96;100.00;41817.09;5092527;28;20662;-60
2023/03/26 06:32:09;;;;;;;2.80;2.60;;;;;;;13.92;100.00;43766.25;5092067;28;20184;-61
2023/03/26 06:34:36;;;;;;;6.60;2.50;;;;;;;13.83;100.00;43759.72;5092054;28;20215;-60
2023/03/26 06:37:03;;;;;;;3.30;2.60;;;;;;;13.73;100.00;46031.03;5092378;28;20566;-60
2023/03/26 06:39:30;;;;;;;2.73;2.63;;;;;;;13.73;100.00;43426.66;5092060;28;20184;-59
2023/03/26 06:41:58;;;;;;;2.80;2.70;;;;;;;13.65;100.00;38219.63;5092201;28;20586;-60
2023/03/26 06:44:25;;;;;;;3.00;2.60;;;;;;;13.62;100.00;44069.31;5092227;28;20250;-60
2023/03/26 06:46:52;;;;;;;3.23;2.67;;;;;;;13.68;100.00;45049.97;5091915;28;20200;-60
2023/03/26 06:49:19;;;;;;;2.20;2.10;;;;;;;13.57;100.00;51230.41;5092135;28;20582;-60
2023/03/26 06:51:46;;;;;;;2.37;2.27;;;;;;;13.80;100.00;53208.47;5091866;28;20184;-61
2023/03/26 06:54:13;;;;;;;5.03;2.80;;;;;;;13.63;100.00;61359.69;5091798;28;20214;-61
2023/03/26 06:56:40;;;;;;;3.87;2.93;;;;;;;14.02;100.00;76816.50;5091781;28;20195;-60
2023/03/26 06:59:09;;;;;;;3.20;2.13;;;;;;;14.59;100.00;104309.66;5090823;28;20643;-62
2023/03/26 07:01:35;;;;;;;2.43;2.23;;;;;;;14.86;100.00;149772.19;5091735;28;20184;-60
2023/03/26 07:04:02;;;;;;;2.63;1.87;;;;;;;15.15;100.00;149844.50;5092018;28;20203;-61
2023/03/26 07:06:32;;;;;;;2.30;2.10;;;;;;;15.09;100.00;149830.53;5091955;28;20188;-60
2023/03/26 07:08:59;;;;;;;2.20;2.10;;;;;;;15.03;100.00;149815.31;5091634;28;20187;-60
2023/03/26 07:11:25;;;;;;;2.97;2.07;;;;;;;14.91;100.00;149786.13;5091405;28;20288;-60
2023/03/26 07:13:55;;;;;;;2.30;2.20;;;;;;;14.88;100.00;149777.28;5091547;28;20516;-61
2023/03/26 07:16:23;;;;;;;3.40;2.63;;;;;;;14.74;100.00;149743.00;5091535;28;20192;-61
2023/03/26 07:18:50;;;;;;;3.40;2.50;;;;;;;14.90;100.00;149782.31;5091459;28;20192;-61
2023/03/26 07:21:18;;;;;;;2.40;2.20;;;;;;;14.91;100.00;149784.88;5091839;28;20626;-61
2023/03/26 07:23:46;;;;;;;2.23;2.00;;;;;;;15.04;100.00;149819.13;5091839;28;20627;-60
2023/03/26 07:26:25;;;;;;;2.00;1.90;;;;;;;15.11;100.00;149835.59;5091561;28;20188;-60
2023/03/26 07:28:59;;;;;;;1.90;1.90;;;;;;;15.50;100.00;149934.63;5091409;28;20257;-61
2023/03/26 07:31:37;;;;;;;2.30;2.20;;;;;;;15.85;100.00;150022.19;5091732;28;20582;-60
2023/03/26 07:34:11;;;;;;;5.27;2.40;;;;;;;15.95;100.00;150047.56;5095272;28;20208;-60
2023/03/26 07:36:44;;;;;;;2.83;2.63;;;;;;;15.92;100.00;150039.94;5095483;28;20195;-61
2023/03/26 07:39:22;;;;;;;2.70;2.50;;;;;;;15.96;100.00;150050.09;5095565;28;20184;-61
2023/03/26 07:41:55;;;;;;;2.53;1.90;;;;;;;15.85;100.00;150022.19;5095439;28;20180;-60
2023/03/26 07:44:43;;;;;;;2.40;2.30;;;;;;;16.14;100.00;150093.25;5095698;28;20184;-61
2023/03/26 07:47:24;;;;;;;4.23;2.30;;;;;;;16.22;100.00;150114.84;5095622;28;20184;-61
2023/03/26 07:49:53;;;;;;;3.00;2.80;;;;;;;16.00;100.00;150060.25;5095282;28;20180;-60
2023/03/26 07:52:20;;;;;;;3.27;3.07;;;;;;;16.37;100.00;150151.69;5095469;28;20199;-61
2023/03/26 07:54:48;;;;;;;3.07;2.97;;;;;;;16.46;100.00;150175.78;5095335;28;20265;-60
2023/03/26 07:57:24;;;;;;;3.93;3.67;;;;;;;16.37;100.00;150152.97;5095439;28;20191;-60
2023/03/26 07:59:57;;;;;;;3.93;3.83;;;;;;;16.22;100.00;150113.56;5095358;28;20188;-60
2023/03/26 08:02:40;;;;;;;4.93;4.53;;;;;;;16.06;100.00;150074.22;5094956;28;20188;-60
2023/03/26 08:05:20;;;;;;;4.57;4.27;;;;;;;16.23;100.00;150116.13;5095203;28;20631;-61
2023/03/26 08:07:59;;;;;;;4.77;4.20;;;;;;;16.37;100.00;150151.69;5095372;28;20567;-60
2023/03/26 08:10:33;;;;;;;5.27;4.97;;;;;;;16.35;100.00;150146.59;5094706;28;20228;-61
2023/03/26 08:13:10;;;;;;;5.30;5.03;;;;;;;16.29;100.00;150131.38;5094683;28;20210;-61
2023/03/26 08:15:46;;;;;;;5.47;5.17;;;;;;;16.39;100.00;150156.72;5094733;28;20279;-61
2023/03/26 08:18:27;;;;;;;4.80;4.60;;;;;;;16.65;100.00;150222.81;5094757;28;20191;-61
2023/03/26 08:20:59;;;;;;;4.90;4.70;;;;;;;16.62;100.00;150215.22;5094929;28;20598;-60
2023/03/26 08:23:36;;;;;;;4.77;4.57;;;;;;;16.72;100.00;150239.38;5094569;28;20188;-60
2023/03/26 08:26:09;;;;;;;5.03;4.83;;;;;;;17.19;100.00;150358.72;5093731;28;20192;-61
2023/03/26 08:28:51;;;;;;;4.70;4.50;;;;;;;17.45;100.00;150423.53;5094697;28;20191;-60
2023/03/26 08:31:23;;;;;;;5.30;5.00;;;;;;;17.66;100.00;150476.97;5094820;28;20194;-61
2023/03/26 08:33:52;;;;;;;4.30;4.10;;;;;;;18.31;100.00;150638.41;5094448;28;20220;-62
2023/03/26 08:36:19;;;;;;;4.83;4.53;;;;;;;18.49;100.00;150685.50;5094717;28;20211;-62
2023/03/26 08:38:45;;;;;;;4.10;4.00;;;;;;;18.55;100.00;150699.50;5094609;28;20203;-62
2023/03/26 08:41:48;;;;;;;4.07;3.97;;;;;;;18.50;100.00;150688.00;5094403;28;20180;-61
2023/03/26 08:44:48;;;;;;;3.83;3.73;;;;;;;18.77;100.00;150754.19;5094027;28;20546;-63
2023/03/26 08:47:49;;;;;;;3.60;3.50;;;;;;;18.87;100.00;150779.63;5094185;28;20180;-62
2023/03/26 08:50:36;;;;;;;3.53;3.40;;;;;;;18.91;100.00;150789.81;5094434;28;20184;-61
2023/03/26 08:53:51;;;;;;;3.17;3.07;;;;;;;19.05;100.00;150825.44;5094029;28;20246;-62
2023/03/26 08:56:27;;;;;;;3.70;3.60;;;;;;;19.27;100.00;150881.41;5070527;28;20206;-62
2023/03/26 08:59:28;;;;;;;4.03;3.77;;;;;;;19.58;100.00;150960.38;5093921;28;20196;-62
2023/03/26 09:02:29;;;;;;;3.53;3.23;;;;;;;19.68;100.00;150983.28;5093864;28;20180;-61
2023/03/26 09:05:33;;;;;;;4.03;3.80;;;;;;;19.73;100.00;150996.03;5073489;28;20203;-61
2023/03/26 09:08:43;;;;;;;3.73;3.43;;;;;;;19.44;100.00;150924.72;5094118;28;20195;-61
2023/03/26 09:11:48;;;;;;;6.53;3.63;;;;;;;18.91;100.00;150789.81;5093587;28;20231;-60
2023/03/26 09:14:32;;;;;;;3.50;3.30;;;;;;;18.59;100.00;150709.66;5092558;28;20227;-60
2023/03/26 09:17:39;;;;;;;2.17;2.07;;;;;;;18.65;100.00;150726.22;5092668;28;20241;-60
2023/03/26 09:20:47;;;;;;;1.90;1.80;;;;;;;18.58;100.00;150708.44;5093872;28;20630;-60
2023/03/26 09:24:03;;;;;;;1.90;1.80;;;;;;;18.41;100.00;150663.88;5086436;28;20569;-59
2023/03/26 09:26:46;;;;;;;2.23;2.03;;;;;;;18.29;100.00;150633.34;5093343;28;20184;-60
2023/03/26 09:29:46;;;;;;;2.10;2.00;;;;;;;18.07;100.00;150578.69;5093336;28;20187;-60
2023/03/26 09:32:43;;;;;;;2.10;2.00;;;;;;;18.43;100.00;150670.22;5093299;28;20194;-60
2023/03/26 09:35:23;;;;;;;1.60;1.60;;;;;;;18.21;100.00;150614.25;5093066;28;20299;-59
2023/03/26 09:38:02;;;;;;;2.10;1.90;;;;;;;18.12;100.00;150591.41;5093083;28;20188;-60
2023/03/26 09:40:38;;;;;;;1.57;1.50;;;;;;;18.04;100.00;150571.00;5093368;28;20300;-61
2023/03/26 09:43:41;;;;;;;2.67;1.23;;;;;;;17.78;100.00;150507.47;5093274;28;20286;-60
2023/03/26 09:46:21;;;;;;;1.77;1.40;;;;;;;17.67;100.00;150478.25;5093034;28;20192;-60
2023/03/26 09:49:23;;;;;;;1.90;1.20;;;;;;;17.66;100.00;150476.97;5093194;28;20202;-61
2023/03/26 09:52:06;;;;;;;1.77;1.67;;;;;;;17.71;100.00;150488.41;5085944;28;20196;-61
2023/03/26 09:55:05;;;;;;;2.50;1.70;;;;;;;17.80;100.00;150511.28;5092132;28;20208;-61
2023/03/26 09:57:57;;;;;;;1.93;1.83;;;;;;;17.76;100.00;150502.41;5093046;28;20207;-60
2023/03/26 10:00:33;;;;;;;1.90;1.80;;;;;;;18.04;100.00;150571.00;5093117;28;20183;-60
2023/03/26 10:03:36;;;;;;;2.40;2.30;;;;;;;19.43;100.00;150922.22;5092664;28;20194;-60
2023/03/26 10:06:33;;;;;;;1.80;1.80;;;;;;;20.33;100.00;151148.81;5091412;28;20290;-60
2023/03/26 10:09:16;;;;;;;1.97;1.87;;;;;;;20.84;100.00;151276.16;5092598;28;20195;-60
2023/03/26 10:12:04;;;;;;;2.10;1.90;;;;;;;21.22;100.00;151371.75;5092405;28;20240;-61
2023/03/26 10:14:41;;;;;;;1.90;1.80;;;;;;;21.39;100.00;151416.38;5092725;28;20578;-61
2023/03/26 10:17:25;;;;;;;2.00;1.90;;;;;;;21.66;100.00;151482.66;5092719;28;20203;-61
2023/03/26 10:20:12;;;;;;;2.42;2.28;;;;;;;21.61;100.00;151471.16;5092678;28;20188;-62
2023/03/26 10:22:49;;;;;;;2.45;2.35;;;;;;;21.13;100.00;151350.09;5092299;28;20183;-60
2023/03/26 10:25:38;;;;;;;2.58;2.38;;;;;;;21.84;100.00;151528.53;5092598;28;20194;-60
2023/03/26 10:28:31;;;;;;;1.98;1.88;;;;;;;22.30;98.36;151644.59;5091061;28;20231;-62
2023/03/26 10:31:19;;;;;;;1.90;1.80;;;;;;;22.15;98.26;151607.59;5092471;28;20263;-60
2023/03/26 10:33:54;;;;;;;2.15;1.98;;;;;;;21.71;100.00;151495.41;5091959;28;20223;-61
2023/03/26 10:36:30;;;;;;;2.30;2.10;;;;;;;21.21;100.00;151369.25;5092514;28;20634;-61
2023/03/26 10:39:10;;;;;;;2.10;2.00;;;;;;;20.74;100.00;151250.72;5092364;28;20279;-61
2023/03/26 10:41:45;;;;;;;2.83;2.60;;;;;;;20.75;100.00;151254.50;5092406;28;20644;-61
2023/03/26 10:44:42;;;;;;;2.00;1.90;;;;;;;22.00;100.00;151569.38;5092285;28;20180;-61
2023/03/26 10:47:35;;;;;;;2.30;2.20;;;;;;;22.78;95.18;151765.81;5092236;28;20188;-60
2023/03/26 10:50:40;;;;;;;2.63;2.42;;;;;;;23.68;85.96;151992.94;5091875;28;20280;-60
2023/03/26 10:53:12;;;;;;;1.65;1.63;;;;;;;23.47;85.65;151940.63;5092153;28;20631;-61
2023/03/26 10:55:44;;;;;;;1.40;1.40;;;;;;;23.64;81.47;151984.03;5091752;28;20210;-60
2023/03/26 10:58:17;;;;;;;1.77;1.58;;;;;;;23.33;81.08;151903.59;5091822;28;20220;-60
2023/03/26 11:00:50;;;;;;;1.65;1.55;;;;;;;22.94;86.27;151806.63;5092079;28;20188;-61
2023/03/26 11:03:34;;;;;;;1.33;1.33;;;;;;;23.60;83.53;151973.81;5091711;28;20176;-59
2023/03/26 11:06:09;;;;;;;1.42;1.42;;;;;;;24.44;79.30;152185.78;5090339;28;20192;-60
2023/03/26 11:08:45;;;;;;;1.10;1.10;;;;;;;24.80;70.78;152276.47;5091936;28;20195;-61
2023/03/26 11:11:24;;;;;;;1.20;1.20;;;;;;;24.01;76.50;152075.97;5091417;28;20238;-60
2023/03/26 11:14:00;;;;;;;1.20;1.20;;;;;;;23.17;79.89;151865.28;5091450;28;20214;-60
2023/03/26 11:16:36;;;;;;;1.10;1.10;;;;;;;21.90;91.72;151542.59;5091554;28;20211;-61
2023/03/26 11:19:12;;;;;;;1.95;1.40;;;;;;;21.00;97.34;151315.69;5091542;28;20230;-61
2023/03/26 11:21:48;;;;;;;1.97;1.73;;;;;;;19.94;100.00;151049.47;5091794;28;20207;-60
2023/03/26 11:24:43;;;;;;;1.67;1.67;;;;;;;19.44;100.00;150923.44;5091815;28;20180;-61
2023/03/26 11:27:23;;;;;;;1.60;1.60;;;;;;;19.37;100.00;150906.88;5086568;28;20200;-60
2023/03/26 11:30:00;;;;;;;1.40;1.30;;;;;;;19.25;100.00;150876.34;5091398;28;20190;-60
2023/03/26 11:32:35;;;;;;;1.40;1.40;;;;;;;19.14;100.00;150849.59;5091763;28;20264;-60
2023/03/26 11:35:10;;;;;;;1.50;1.40;;;;;;;19.21;100.00;150864.88;5091616;28;20226;-59
2023/03/26 11:37:41;;;;;;;1.10;1.10;;;;;;;19.13;100.00;150845.81;5091697;28;20531;-59
2023/03/26 11:40:14;;;;;;;1.20;1.20;;;;;;;18.95;100.00;150801.28;5091756;28;20188;-60
2023/03/26 11:42:43;;;;;;;5.03;1.30;;;;;;;18.78;100.00;150756.75;5091409;28;20284;-60
2023/03/26 11:45:17;;;;;;;1.00;1.00;;;;;;;18.63;100.00;150721.13;5091586;28;20216;-60
2023/03/26 11:47:48;;;;;;;0.80;0.80;;;;;;;18.65;100.00;150726.22;5091807;28;20179;-61